createdAt,value
2023-05-03T00:02:07.261Z,9.05
2023-05-03T00:04:37.741Z,13.45
2023-05-03T00:07:08.836Z,13.27
2023-05-03T00:09:39.061Z,11.25
2023-05-03T00:12:09.195Z,16.55
2023-05-03T00:14:39.317Z,13.63
2023-05-03T00:17:09.457Z,13.10
2023-05-03T00:19:40.209Z,9.90
2023-05-03T00:22:10.414Z,10.90
2023-05-03T00:24:40.568Z,10.45
2023-05-03T00:27:10.920Z,15.13
2023-05-03T00:29:41.221Z,17.15
2023-05-03T00:32:11.530Z,22.30
2023-05-03T00:34:41.766Z,21.60
2023-05-03T00:37:12.321Z,16.63
2023-05-03T00:39:42.438Z,17.70
2023-05-03T00:42:12.976Z,14.13
2023-05-03T00:44:43.489Z,13.73
2023-05-03T00:47:15.945Z,15.05
2023-05-03T00:49:46.240Z,14.18
2023-05-03T00:52:16.728Z,13.15
2023-05-03T00:54:46.875Z,13.23
2023-05-03T00:57:17.131Z,12.85
2023-05-03T00:59:47.443Z,15.07
2023-05-03T01:02:17.654Z,9.48
2023-05-03T01:04:48.165Z,13.10
2023-05-03T01:07:56.788Z,12.70
2023-05-03T01:10:44.700Z,9.15
2023-05-03T01:14:05.698Z,14.63
2023-05-03T01:16:50.000Z,12.85
2023-05-03T01:19:36.350Z,11.85
2023-05-03T01:22:10.318Z,18.10
2023-05-03T01:24:42.626Z,13.63
2023-05-03T01:27:12.810Z,15.23
2023-05-03T01:29:44.135Z,12.07
2023-05-03T01:32:22.815Z,12.10
2023-05-03T01:35:05.913Z,14.07
2023-05-03T01:37:38.435Z,12.13
2023-05-03T01:40:10.256Z,11.23
2023-05-03T01:42:40.729Z,9.48
2023-05-03T01:45:12.759Z,7.38
2023-05-03T01:47:42.974Z,8.85
2023-05-03T01:50:13.215Z,10.40
2023-05-03T01:52:45.158Z,12.80
2023-05-03T01:55:15.479Z,9.60
2023-05-03T01:57:45.674Z,11.38
2023-05-03T02:00:16.510Z,10.88
2023-05-03T02:02:46.628Z,11.50
2023-05-03T02:05:16.936Z,11.63
2023-05-03T02:07:47.137Z,15.75
2023-05-03T02:10:17.620Z,10.00
2023-05-03T02:12:47.971Z,13.55
2023-05-03T02:15:20.427Z,11.80
2023-05-03T02:17:51.128Z,9.68
2023-05-03T02:20:21.692Z,8.00
2023-05-03T02:22:51.851Z,13.85
2023-05-03T02:25:22.070Z,12.70
2023-05-03T02:27:52.185Z,10.35
2023-05-03T02:30:22.345Z,10.95
2023-05-03T02:32:52.529Z,10.90
2023-05-03T02:35:22.717Z,10.93
2023-05-03T02:37:52.876Z,11.15
2023-05-03T02:40:23.114Z,10.80
2023-05-03T02:42:53.248Z,11.10
2023-05-03T02:45:23.400Z,11.18
2023-05-03T02:47:53.559Z,11.18
2023-05-03T02:50:23.866Z,12.65
2023-05-03T02:52:54.095Z,8.75
2023-05-03T02:55:24.282Z,11.85
2023-05-03T02:57:54.463Z,11.20
2023-05-03T03:00:24.642Z,12.02
2023-05-03T03:02:54.900Z,13.57
2023-05-03T03:05:25.234Z,13.52
2023-05-03T03:07:55.472Z,13.57
2023-05-03T03:10:26.124Z,10.55
2023-05-03T03:12:56.385Z,13.52
2023-05-03T03:15:26.648Z,9.38
2023-05-03T03:17:58.560Z,13.45
2023-05-03T03:20:28.828Z,11.88
2023-05-03T03:22:59.375Z,12.90
2023-05-03T03:25:29.536Z,8.38
2023-05-03T03:27:59.740Z,11.02
2023-05-03T03:30:30.932Z,7.18
2023-05-03T03:33:01.138Z,9.55
2023-05-03T03:35:31.366Z,11.68
2023-05-03T03:38:01.492Z,14.93
2023-05-03T03:40:31.989Z,18.13
2023-05-03T03:43:02.126Z,17.75
2023-05-03T03:45:32.330Z,13.95
2023-05-03T03:48:02.467Z,10.32
2023-05-03T03:50:34.367Z,12.95
2023-05-03T03:53:04.918Z,15.45
2023-05-03T03:55:35.149Z,15.10
2023-05-03T03:58:05.993Z,15.48
2023-05-03T04:00:37.101Z,12.70
2023-05-03T04:03:07.823Z,13.45
2023-05-03T04:05:38.282Z,13.70
2023-05-03T04:08:08.430Z,13.10
2023-05-03T04:10:38.604Z,9.88
2023-05-03T04:13:08.937Z,11.18
2023-05-03T04:15:39.071Z,11.18
2023-05-03T04:18:09.461Z,9.45
2023-05-03T04:20:39.652Z,9.00
2023-05-03T04:23:09.909Z,7.13
2023-05-03T04:25:46.691Z,10.65
2023-05-03T04:30:47.652Z,10.38
2023-05-03T04:33:37.693Z,10.95
2023-05-03T04:36:09.462Z,11.73
2023-05-03T04:38:39.582Z,11.27
2023-05-03T04:41:10.303Z,8.00
2023-05-03T04:43:40.881Z,9.68
2023-05-03T04:46:11.164Z,11.30
2023-05-03T04:48:41.318Z,9.25
2023-05-03T04:51:11.689Z,9.52
2023-05-03T04:53:41.891Z,12.27
2023-05-03T04:56:12.244Z,10.45
2023-05-03T04:58:44.656Z,14.18
2023-05-03T05:01:14.830Z,11.65
2023-05-03T05:03:45.051Z,15.25
2023-05-03T05:06:15.437Z,10.82
2023-05-03T05:08:45.701Z,12.43
2023-05-03T05:11:16.211Z,15.07
2023-05-03T05:13:46.558Z,10.23
2023-05-03T05:16:17.758Z,10.63
2023-05-03T05:18:48.581Z,14.07
2023-05-03T05:21:18.944Z,10.40
2023-05-03T05:23:49.143Z,15.98
2023-05-03T05:26:19.343Z,12.90
2023-05-03T05:28:50.238Z,11.23
2023-05-03T05:31:20.489Z,11.13
2023-05-03T05:33:51.112Z,13.95
2023-05-03T05:36:21.300Z,10.75
2023-05-03T05:38:51.563Z,12.65
2023-05-03T05:41:21.797Z,13.57
2023-05-03T05:43:52.238Z,12.70
2023-05-03T05:46:22.440Z,12.23
2023-05-03T05:48:52.681Z,11.00
2023-05-03T05:51:22.854Z,14.82
2023-05-03T05:53:53.141Z,10.52
2023-05-03T05:56:23.477Z,19.38
2023-05-03T05:58:53.637Z,11.68
2023-05-03T06:01:24.095Z,9.98
2023-05-03T06:03:54.301Z,12.00
2023-05-03T06:06:24.672Z,7.70
2023-05-03T06:08:55.587Z,13.02
2023-05-03T06:11:25.747Z,19.63
2023-05-03T06:13:57.587Z,21.20
2023-05-03T06:16:27.958Z,15.55
2023-05-03T06:18:58.120Z,10.13
2023-05-03T06:21:28.601Z,16.15
2023-05-03T06:23:58.738Z,18.52
2023-05-03T06:26:28.959Z,15.68
2023-05-03T06:29:01.032Z,12.80
2023-05-03T06:31:31.439Z,13.60
2023-05-03T06:34:01.613Z,11.27
2023-05-03T06:36:31.896Z,9.60
2023-05-03T06:39:04.715Z,10.68
2023-05-03T06:41:37.266Z,7.45
2023-05-03T06:44:07.639Z,11.30
2023-05-03T06:46:37.917Z,17.30
2023-05-03T06:49:08.647Z,8.52
2023-05-03T06:51:38.851Z,10.98
2023-05-03T06:54:10.115Z,10.00
2023-05-03T06:56:40.379Z,8.43
2023-05-03T06:59:10.618Z,8.77
2023-05-03T07:01:40.848Z,6.30
2023-05-03T07:04:11.210Z,10.63
2023-05-03T07:06:55.470Z,12.63
2023-05-03T07:09:41.436Z,10.82
2023-05-03T07:12:12.246Z,8.33
2023-05-03T07:14:42.779Z,9.63
2023-05-03T07:17:13.268Z,9.57
2023-05-03T07:19:43.466Z,11.00
2023-05-03T07:22:13.812Z,9.02
2023-05-03T07:24:44.025Z,6.45
2023-05-03T07:27:15.667Z,6.15
2023-05-03T07:29:45.804Z,6.68
2023-05-03T07:32:16.114Z,6.72
2023-05-03T07:34:46.317Z,6.70
2023-05-03T07:37:16.581Z,6.45
2023-05-03T07:39:46.664Z,13.68
2023-05-03T07:42:16.848Z,9.20
2023-05-03T07:44:47.008Z,7.30
2023-05-03T07:47:17.255Z,8.15
2023-05-03T07:49:48.062Z,10.27
2023-05-03T07:52:18.278Z,11.38
2023-05-03T07:54:48.401Z,9.52
2023-05-03T07:57:18.676Z,6.22
2023-05-03T07:59:48.942Z,8.05
2023-05-03T08:02:19.193Z,5.03
2023-05-03T08:04:49.812Z,5.75
2023-05-03T08:07:20.837Z,8.05
2023-05-03T08:09:53.774Z,7.00
2023-05-03T08:12:24.326Z,4.85
2023-05-03T08:14:55.969Z,6.57
2023-05-03T08:17:26.550Z,5.85
2023-05-03T08:19:57.275Z,6.13
2023-05-03T08:22:27.381Z,8.40
2023-05-03T08:24:57.555Z,6.57
2023-05-03T08:27:28.764Z,9.05
2023-05-03T08:30:00.335Z,4.50
2023-05-03T08:32:30.788Z,5.85
2023-05-03T08:35:01.006Z,4.82
2023-05-03T08:37:31.236Z,9.95
2023-05-03T08:40:02.393Z,5.03
2023-05-03T08:42:33.937Z,4.82
2023-05-03T08:45:05.019Z,20.38
2023-05-03T08:47:38.643Z,9.25
2023-05-03T08:50:10.486Z,8.30
2023-05-03T08:52:42.726Z,4.75
2023-05-03T08:55:13.482Z,5.53
2023-05-03T08:57:43.874Z,4.18
2023-05-03T09:00:14.600Z,4.75
2023-05-03T09:02:45.301Z,3.65
2023-05-03T09:05:15.929Z,5.15
2023-05-03T09:08:05.489Z,3.65
2023-05-03T09:10:43.286Z,4.10
2023-05-03T09:13:13.556Z,4.55
2023-05-03T09:15:47.002Z,2.88
2023-05-03T09:18:20.137Z,3.38
2023-05-03T09:20:52.530Z,2.42
2023-05-03T09:23:26.261Z,2.60
2023-05-03T09:25:56.832Z,3.63
2023-05-03T09:28:27.711Z,7.32
2023-05-03T09:31:11.589Z,3.28
2023-05-03T09:33:44.396Z,4.47
2023-05-03T09:36:15.191Z,3.90
2023-05-03T09:38:52.574Z,2.53
2023-05-03T09:41:34.222Z,3.60
2023-05-03T09:44:07.999Z,4.43
2023-05-03T09:46:40.766Z,2.67
2023-05-03T09:49:11.953Z,2.42
2023-05-03T09:51:43.667Z,2.72
2023-05-03T09:54:16.606Z,3.47
2023-05-03T09:56:47.969Z,2.33
2023-05-03T09:59:18.855Z,3.35
2023-05-03T10:01:51.601Z,2.05
2023-05-03T10:04:25.794Z,3.35
2023-05-03T10:07:01.190Z,5.70
2023-05-03T10:09:44.662Z,2.13
2023-05-03T10:12:17.850Z,3.05
2023-05-03T10:14:50.194Z,3.72
2023-05-03T10:17:46.373Z,4.75
2023-05-03T10:20:36.542Z,3.00
2023-05-03T10:23:06.792Z,2.28
2023-05-03T10:25:39.289Z,3.08
2023-05-03T10:28:10.340Z,15.18
2023-05-03T10:30:41.026Z,8.15
2023-05-03T10:33:14.496Z,5.45
2023-05-03T10:35:53.720Z,3.65
2023-05-03T10:38:26.083Z,2.60
2023-05-03T10:40:57.041Z,5.60
2023-05-03T10:43:32.907Z,4.90
2023-05-03T10:46:05.786Z,4.30
2023-05-03T10:48:39.016Z,8.00
2023-05-03T10:51:29.121Z,5.40
2023-05-03T10:53:59.374Z,5.32
2023-05-03T10:56:29.531Z,4.40
2023-05-03T10:58:59.772Z,8.25
2023-05-03T11:01:30.191Z,9.07
2023-05-03T11:04:45.934Z,4.90
2023-05-03T11:07:22.882Z,8.13
2023-05-03T11:09:53.192Z,4.95
2023-05-03T11:12:23.669Z,7.70
2023-05-03T11:14:53.840Z,2.35
2023-05-03T11:17:24.663Z,6.47
2023-05-03T11:19:55.332Z,3.65
2023-05-03T11:22:25.639Z,3.38
2023-05-03T11:24:56.462Z,6.47
2023-05-03T11:27:26.768Z,5.03
2023-05-03T11:29:58.651Z,4.25
2023-05-03T11:32:30.124Z,5.53
2023-05-03T11:35:04.040Z,3.03
2023-05-03T11:37:34.843Z,3.83
2023-05-03T11:40:08.396Z,5.50
2023-05-03T11:42:54.255Z,4.80
2023-05-03T11:45:27.451Z,5.50
2023-05-03T11:47:58.112Z,2.83
2023-05-03T11:51:07.908Z,9.55
2023-05-03T11:53:44.087Z,4.90
2023-05-03T11:56:15.578Z,5.07
2023-05-03T11:58:57.615Z,3.42
2023-05-03T12:01:29.342Z,3.60
2023-05-03T12:04:05.652Z,3.35
2023-05-03T12:09:15.689Z,3.17
2023-05-03T12:11:47.962Z,2.92
2023-05-03T12:14:19.821Z,7.68
2023-05-03T12:16:52.903Z,3.20
2023-05-03T12:19:30.356Z,1.65
2023-05-03T12:24:38.794Z,1.20
2023-05-03T12:27:09.590Z,1.73
2023-05-03T12:29:41.629Z,1.50
2023-05-03T12:32:12.432Z,1.15
2023-05-03T12:34:46.728Z,2.00
2023-05-03T12:37:17.644Z,3.88
2023-05-03T12:39:58.474Z,1.98
2023-05-03T12:42:38.234Z,3.25
2023-05-03T12:45:12.477Z,8.77
2023-05-03T12:47:44.345Z,1.35
2023-05-03T12:50:18.352Z,1.05
2023-05-03T12:52:52.694Z,10.10
2023-05-03T12:55:25.324Z,1.67
2023-05-03T12:58:22.404Z,1.90
2023-05-03T13:01:22.025Z,1.92
2023-05-03T13:03:43.773Z,2.35
2023-05-03T13:06:15.360Z,2.05
2023-05-03T13:08:50.118Z,2.05
2023-05-03T13:11:21.699Z,0.90
2023-05-03T13:13:54.787Z,1.00
2023-05-03T13:16:26.506Z,2.83
2023-05-03T13:18:56.827Z,1.48
2023-05-03T13:21:28.234Z,2.55
2023-05-03T13:23:59.113Z,1.13
2023-05-03T13:26:29.654Z,1.55
2023-05-03T13:29:00.676Z,1.88
2023-05-03T13:31:31.148Z,2.42
2023-05-03T13:34:01.251Z,2.00
2023-05-03T13:36:33.613Z,1.73
2023-05-03T13:39:03.968Z,1.85
2023-05-03T13:41:34.269Z,2.97
2023-05-03T13:44:04.598Z,2.22
2023-05-03T13:46:39.291Z,2.63
2023-05-03T13:49:09.807Z,1.60
2023-05-03T13:51:40.256Z,1.55
2023-05-03T13:54:10.500Z,3.83
2023-05-03T13:56:42.986Z,0.68
2023-05-03T13:59:16.771Z,0.75
2023-05-03T14:01:48.319Z,0.88
2023-05-03T14:04:20.145Z,1.05
2023-05-03T14:06:50.365Z,4.25
2023-05-03T14:09:20.526Z,1.10
2023-05-03T14:11:51.779Z,1.85
2023-05-03T14:14:22.288Z,2.95
2023-05-03T14:16:52.483Z,2.10
2023-05-03T14:19:22.728Z,1.95
2023-05-03T14:21:59.182Z,2.03
2023-05-03T14:24:29.395Z,1.50
2023-05-03T14:27:00.426Z,2.25
2023-05-03T14:29:31.048Z,1.70
2023-05-03T14:32:01.322Z,1.85
2023-05-03T14:34:31.697Z,1.98
2023-05-03T14:37:02.811Z,2.55
2023-05-03T14:39:33.172Z,2.90
2023-05-03T14:42:03.507Z,2.92
2023-05-03T14:44:33.648Z,3.50
2023-05-03T14:47:04.904Z,2.03
2023-05-03T14:49:40.749Z,3.45
2023-05-03T14:52:11.963Z,1.85
2023-05-03T14:54:45.882Z,1.73
2023-05-03T14:57:16.165Z,1.90
2023-05-03T14:59:47.721Z,3.00
2023-05-03T15:02:19.560Z,2.42
2023-05-03T15:04:49.804Z,2.08
2023-05-03T15:07:21.134Z,4.28
2023-05-03T15:09:51.576Z,2.03
2023-05-03T15:12:21.826Z,2.90
2023-05-03T15:14:52.405Z,1.38
2023-05-03T15:17:23.355Z,2.78
2023-05-03T15:19:53.457Z,1.98
2023-05-03T15:22:23.518Z,2.38
2023-05-03T15:24:53.675Z,1.92
2023-05-03T15:27:23.764Z,2.53
2023-05-03T15:29:53.963Z,5.00
2023-05-03T15:32:25.540Z,4.90
2023-05-03T15:34:55.971Z,1.80
2023-05-03T15:37:38.047Z,4.75
2023-05-03T15:40:10.987Z,1.92
2023-05-03T15:42:41.639Z,3.00
2023-05-03T15:45:13.292Z,2.42
2023-05-03T15:47:43.561Z,3.58
2023-05-03T15:50:14.520Z,4.22
2023-05-03T15:52:47.012Z,4.05
2023-05-03T15:55:19.501Z,4.13
2023-05-03T15:57:50.146Z,4.15
2023-05-03T16:00:23.108Z,3.85
2023-05-03T16:02:53.416Z,2.78
2023-05-03T16:05:23.876Z,3.03
2023-05-03T16:07:54.933Z,3.25
2023-05-03T16:10:26.015Z,3.55
2023-05-03T16:12:56.606Z,3.53
2023-05-03T16:15:27.392Z,2.53
2023-05-03T16:17:57.833Z,3.47
2023-05-03T16:20:28.059Z,3.95
2023-05-03T16:22:58.656Z,3.53
2023-05-03T16:25:29.291Z,3.53
2023-05-03T16:27:59.779Z,3.97
2023-05-03T16:30:30.341Z,3.38
2023-05-03T16:33:05.264Z,2.78
2023-05-03T16:35:35.646Z,7.07
2023-05-03T16:38:05.906Z,6.13
2023-05-03T16:40:37.568Z,3.75
2023-05-03T16:43:10.416Z,3.58
2023-05-03T16:45:40.797Z,3.53
2023-05-03T16:48:11.469Z,5.00
2023-05-03T16:50:43.297Z,3.45
2023-05-03T16:53:13.481Z,4.47
2023-05-03T16:55:43.665Z,2.78
2023-05-03T16:58:14.095Z,4.32
2023-05-03T17:00:45.095Z,4.40
2023-05-03T17:03:15.388Z,4.38
2023-05-03T17:05:45.786Z,3.97
2023-05-03T17:08:15.879Z,5.65
2023-05-03T17:10:46.058Z,4.97
2023-05-03T17:13:17.519Z,3.65
2023-05-03T17:15:48.086Z,4.93
2023-05-03T17:18:18.149Z,3.42
2023-05-03T17:20:48.324Z,4.28
2023-05-03T17:23:20.459Z,5.22
2023-05-03T17:25:57.533Z,3.97
2023-05-03T17:28:28.193Z,5.85
2023-05-03T17:30:58.953Z,4.13
2023-05-03T17:33:29.873Z,2.63
2023-05-03T17:36:05.031Z,3.50
2023-05-03T17:38:36.189Z,5.55
2023-05-03T17:41:11.586Z,6.00
2023-05-03T17:43:51.587Z,5.70
2023-05-03T17:46:31.836Z,6.20
2023-05-03T17:49:12.848Z,17.33
2023-05-03T17:51:42.986Z,34.72
2023-05-03T17:54:13.545Z,16.38
2023-05-03T17:56:46.667Z,14.93
2023-05-03T17:59:19.674Z,15.10
2023-05-03T18:01:49.903Z,12.80
2023-05-03T18:04:27.536Z,7.47
2023-05-03T18:06:57.815Z,8.43
2023-05-03T18:09:28.000Z,8.02
2023-05-03T18:12:00.117Z,10.15
2023-05-03T18:14:38.304Z,10.85
2023-05-03T18:17:08.474Z,7.75
2023-05-03T18:19:39.660Z,8.40
2023-05-03T18:22:10.200Z,7.43
2023-05-03T18:24:57.631Z,8.00
2023-05-03T18:27:56.192Z,6.20
2023-05-03T18:30:31.757Z,6.00
2023-05-03T18:33:18.823Z,7.35
2023-05-03T18:36:12.316Z,6.57
2023-05-03T18:38:48.801Z,5.05
2023-05-03T18:44:10.895Z,5.43
2023-05-03T18:46:41.181Z,6.28
2023-05-03T18:49:14.401Z,9.98
2023-05-03T18:51:46.289Z,9.55
2023-05-03T18:54:16.574Z,9.40
2023-05-03T18:56:46.785Z,5.65
2023-05-03T18:59:16.929Z,9.98
2023-05-03T19:01:47.310Z,19.42
2023-05-03T19:04:17.834Z,20.38
2023-05-03T19:06:48.068Z,17.65
2023-05-03T19:09:19.138Z,17.17
2023-05-03T19:11:50.452Z,18.98
2023-05-03T19:14:20.653Z,20.67
2023-05-03T19:16:50.848Z,15.82
2023-05-03T19:19:21.524Z,16.33
2023-05-03T19:21:51.698Z,15.98
2023-05-03T19:24:21.796Z,14.85
2023-05-03T19:26:52.985Z,11.05
2023-05-03T19:29:23.131Z,12.95
2023-05-03T19:31:54.712Z,15.88
2023-05-03T19:34:24.883Z,15.48
2023-05-03T19:36:55.125Z,10.85
2023-05-03T19:39:25.193Z,9.48
2023-05-03T19:41:55.442Z,7.10
2023-05-03T19:44:28.629Z,7.13
2023-05-03T19:46:58.921Z,5.40
2023-05-03T19:49:29.423Z,7.18
2023-05-03T19:51:59.851Z,7.97
2023-05-03T19:54:30.035Z,8.38
2023-05-03T19:57:07.724Z,8.20
2023-05-03T19:59:38.041Z,9.35
2023-05-03T20:02:08.407Z,7.00
2023-05-03T20:04:38.830Z,6.93
2023-05-03T20:07:08.968Z,7.93
2023-05-03T20:09:39.252Z,5.03
2023-05-03T20:12:10.985Z,6.32
2023-05-03T20:14:41.457Z,7.13
2023-05-03T20:17:11.810Z,6.93
2023-05-03T20:19:42.202Z,8.35
2023-05-03T20:22:12.454Z,8.80
2023-05-03T20:24:42.761Z,5.85
2023-05-03T20:27:13.048Z,6.15
2023-05-03T20:29:43.176Z,8.10
2023-05-03T20:32:13.450Z,12.00
2023-05-03T20:34:44.835Z,11.38
2023-05-03T20:37:15.058Z,11.05
2023-05-03T20:39:45.264Z,11.23
2023-05-03T20:42:15.532Z,9.15
2023-05-03T20:44:45.787Z,8.07
2023-05-03T20:47:16.126Z,9.18
2023-05-03T20:49:46.974Z,8.20
2023-05-03T20:52:17.497Z,10.13
2023-05-03T20:54:47.682Z,10.23
2023-05-03T20:57:17.896Z,6.43
2023-05-03T20:59:48.215Z,18.20
2023-05-03T21:02:18.292Z,7.30
2023-05-03T21:04:48.526Z,6.72
2023-05-03T21:07:18.777Z,5.45
2023-05-03T21:09:49.007Z,6.72
2023-05-03T21:12:19.202Z,6.88
2023-05-03T21:14:49.375Z,8.85
2023-05-03T21:17:19.575Z,9.25
2023-05-03T21:19:49.789Z,5.75
2023-05-03T21:22:23.108Z,6.75
2023-05-03T21:24:54.268Z,8.88
2023-05-03T21:27:24.428Z,8.18
2023-05-03T21:29:54.600Z,6.22
2023-05-03T21:32:24.837Z,7.25
2023-05-03T21:34:55.032Z,6.53
2023-05-03T21:37:25.329Z,6.40
2023-05-03T21:40:01.826Z,6.32
2023-05-03T21:42:33.166Z,4.43
2023-05-03T21:45:03.426Z,8.52
2023-05-03T21:47:33.755Z,5.65
2023-05-03T21:50:06.429Z,5.18
2023-05-03T21:52:37.505Z,5.45
2023-05-03T21:55:08.701Z,5.75
2023-05-03T21:57:38.888Z,3.95
2023-05-03T22:00:15.040Z,5.13
2023-05-03T22:02:45.548Z,6.72
2023-05-03T22:05:15.896Z,17.05
2023-05-03T22:07:47.904Z,20.05
2023-05-03T22:10:18.882Z,22.42
2023-05-03T22:12:49.094Z,19.88
2023-05-03T22:15:20.366Z,11.77
2023-05-03T22:17:50.513Z,11.98
2023-05-03T22:20:21.236Z,8.30
2023-05-03T22:22:51.494Z,9.55
2023-05-03T22:25:23.651Z,13.20
2023-05-03T22:27:55.012Z,17.73
2023-05-03T22:30:25.153Z,17.80
2023-05-03T22:32:55.709Z,14.15
2023-05-03T22:35:26.243Z,13.00
2023-05-03T22:37:56.379Z,8.23
2023-05-03T22:40:26.594Z,8.52
2023-05-03T22:42:56.963Z,8.65
2023-05-03T22:45:27.200Z,9.00
2023-05-03T22:47:57.299Z,10.60
2023-05-03T22:50:27.719Z,9.13
2023-05-03T22:52:57.870Z,10.38
2023-05-03T22:55:29.413Z,9.18
2023-05-03T22:57:59.612Z,11.60
2023-05-03T23:00:31.088Z,7.45
2023-05-03T23:03:01.650Z,9.40
2023-05-03T23:05:32.050Z,10.88
2023-05-03T23:08:02.537Z,10.10
2023-05-03T23:10:32.788Z,11.70
2023-05-03T23:13:03.285Z,12.27
2023-05-03T23:15:33.611Z,12.20
2023-05-03T23:18:04.248Z,9.10
2023-05-03T23:20:34.543Z,11.75
2023-05-03T23:23:06.242Z,9.73
2023-05-03T23:25:36.469Z,12.40
2023-05-03T23:28:06.638Z,7.63
2023-05-03T23:30:42.691Z,6.47
2023-05-03T23:33:13.260Z,5.65
2023-05-03T23:35:43.966Z,9.52
2023-05-03T23:38:14.114Z,7.68
2023-05-03T23:40:44.303Z,13.13
2023-05-03T23:43:14.561Z,8.73
2023-05-03T23:45:45.337Z,11.15
2023-05-03T23:48:15.894Z,8.52
2023-05-03T23:50:48.356Z,6.57
2023-05-03T23:53:18.456Z,7.65
2023-05-03T23:55:48.628Z,7.35
2023-05-03T23:58:18.961Z,9.35
